createdAt,value
2022-11-13T00:00:06.375Z,6.50
2022-11-13T00:00:29.205Z,6.60
2022-11-13T00:00:52.174Z,6.35
2022-11-13T00:01:16.263Z,6.40
2022-11-13T00:01:39.145Z,6.40
2022-11-13T00:02:04.301Z,6.47
2022-11-13T00:02:27.122Z,6.78
2022-11-13T00:02:49.907Z,6.57
2022-11-13T00:03:15.693Z,6.50
2022-11-13T00:03:38.507Z,6.55
2022-11-13T00:04:03.431Z,6.30
2022-11-13T00:04:28.657Z,6.50
2022-11-13T00:04:51.374Z,6.55
2022-11-13T00:05:14.215Z,6.25
2022-11-13T00:05:36.858Z,6.53
2022-11-13T00:06:00.852Z,6.72
2022-11-13T00:06:25.828Z,6.68
2022-11-13T00:06:48.742Z,6.85
2022-11-13T00:07:13.018Z,6.82
2022-11-13T00:07:38.099Z,6.43
2022-11-13T00:08:03.642Z,6.85
2022-11-13T00:08:29.498Z,6.50
2022-11-13T00:08:54.934Z,7.07
2022-11-13T00:09:17.664Z,6.22
2022-11-13T00:09:40.518Z,6.45
2022-11-13T00:10:05.504Z,6.70
2022-11-13T00:10:28.316Z,7.32
2022-11-13T00:10:51.065Z,6.78
2022-11-13T00:11:18.309Z,7.18
2022-11-13T00:11:41.084Z,6.65
2022-11-13T00:12:05.330Z,6.70
2022-11-13T00:12:29.299Z,6.70
2022-11-13T00:12:54.571Z,6.88
2022-11-13T00:13:19.760Z,6.90
2022-11-13T00:13:44.914Z,6.68
2022-11-13T00:14:07.801Z,6.65
2022-11-13T00:14:30.504Z,6.90
2022-11-13T00:14:53.281Z,6.68
2022-11-13T00:15:16.059Z,6.53
2022-11-13T00:15:40.941Z,6.78
2022-11-13T00:16:04.699Z,6.72
2022-11-13T00:16:27.466Z,6.88
2022-11-13T00:16:53.345Z,7.13
2022-11-13T00:17:16.004Z,6.82
2022-11-13T00:17:41.784Z,7.13
2022-11-13T00:18:04.798Z,6.65
2022-11-13T00:18:30.459Z,6.72
2022-11-13T00:18:53.665Z,6.75
2022-11-13T00:19:18.854Z,7.07
2022-11-13T00:19:41.711Z,6.85
2022-11-13T00:20:05.056Z,7.20
2022-11-13T00:20:28.891Z,7.40
2022-11-13T00:20:51.678Z,7.53
2022-11-13T00:21:15.215Z,7.25
2022-11-13T00:21:38.481Z,6.97
2022-11-13T00:22:01.401Z,7.05
2022-11-13T00:22:27.703Z,7.05
2022-11-13T00:22:53.313Z,7.15
2022-11-13T00:23:16.032Z,6.85
2022-11-13T00:23:41.604Z,7.10
2022-11-13T00:24:04.700Z,7.20
2022-11-13T00:24:28.011Z,7.05
2022-11-13T00:24:50.742Z,7.40
2022-11-13T00:25:13.454Z,7.22
2022-11-13T00:25:39.210Z,7.25
2022-11-13T00:26:05.465Z,7.03
2022-11-13T00:26:30.094Z,6.95
2022-11-13T00:26:52.906Z,7.13
2022-11-13T00:27:18.815Z,7.38
2022-11-13T00:27:41.546Z,7.35
2022-11-13T00:28:04.396Z,7.40
2022-11-13T00:28:27.503Z,7.18
2022-11-13T00:28:53.626Z,7.03
2022-11-13T00:29:19.409Z,7.07
2022-11-13T00:29:42.128Z,7.53
2022-11-13T00:30:08.209Z,7.03
2022-11-13T00:30:30.965Z,7.43
2022-11-13T00:31:02.349Z,6.78
2022-11-13T00:31:25.299Z,7.35
2022-11-13T00:31:50.413Z,6.97
2022-11-13T00:32:13.165Z,7.25
2022-11-13T00:32:37.973Z,7.47
2022-11-13T00:33:00.710Z,7.45
2022-11-13T00:33:45.398Z,6.97
2022-11-13T00:34:26.369Z,6.82
2022-11-13T00:34:51.502Z,7.45
2022-11-13T00:35:14.260Z,7.20
2022-11-13T00:35:39.509Z,6.93
2022-11-13T00:36:03.525Z,6.90
2022-11-13T00:36:30.241Z,7.18
2022-11-13T00:36:52.990Z,7.30
2022-11-13T00:37:15.710Z,7.75
2022-11-13T00:37:40.025Z,7.40
2022-11-13T00:38:02.947Z,7.00
2022-11-13T00:38:25.937Z,7.38
2022-11-13T00:38:51.049Z,6.85
2022-11-13T00:39:13.860Z,6.90
2022-11-13T00:39:39.070Z,7.15
2022-11-13T00:40:01.839Z,6.70
2022-11-13T00:40:24.525Z,6.43
2022-11-13T00:40:47.250Z,6.53
2022-11-13T00:41:09.971Z,7.05
2022-11-13T00:41:32.989Z,6.88
2022-11-13T00:41:55.699Z,7.25
2022-11-13T00:42:18.430Z,7.20
2022-11-13T00:42:41.180Z,7.10
2022-11-13T00:43:03.935Z,7.20
2022-11-13T00:43:26.666Z,7.00
2022-11-13T00:43:49.451Z,6.95
2022-11-13T00:44:12.291Z,6.85
2022-11-13T00:44:35.065Z,7.20
2022-11-13T00:44:57.735Z,7.28
2022-11-13T00:45:22.671Z,7.43
2022-11-13T00:45:45.381Z,7.55
2022-11-13T00:46:08.341Z,7.20
2022-11-13T00:46:31.054Z,6.80
2022-11-13T00:46:53.764Z,7.30
2022-11-13T00:47:16.480Z,7.07
2022-11-13T00:47:39.340Z,7.53
2022-11-13T00:48:02.080Z,7.50
2022-11-13T00:48:27.535Z,7.07
2022-11-13T00:48:50.452Z,6.80
2022-11-13T00:49:13.476Z,7.22
2022-11-13T00:49:38.695Z,7.40
2022-11-13T00:50:01.471Z,6.82
2022-11-13T00:50:24.219Z,7.47
2022-11-13T00:50:47.078Z,7.95
2022-11-13T00:51:09.870Z,7.05
2022-11-13T00:51:33.580Z,7.45
2022-11-13T00:51:56.400Z,7.05
2022-11-13T00:52:21.565Z,6.90
2022-11-13T00:52:48.070Z,7.00
2022-11-13T00:53:17.798Z,7.20
2022-11-13T00:53:40.987Z,7.03
2022-11-13T00:54:05.958Z,7.13
2022-11-13T00:54:28.667Z,7.03
2022-11-13T00:54:54.331Z,7.10
2022-11-13T00:55:17.181Z,7.55
2022-11-13T00:55:39.969Z,6.90
2022-11-13T00:56:02.946Z,7.15
2022-11-13T00:56:25.806Z,6.40
2022-11-13T00:56:51.044Z,6.95
2022-11-13T00:57:13.813Z,7.30
2022-11-13T00:57:36.576Z,6.70
2022-11-13T00:57:59.238Z,7.05
2022-11-13T00:58:26.468Z,7.03
2022-11-13T00:58:49.454Z,7.18
2022-11-13T00:59:14.421Z,7.13
2022-11-13T00:59:37.132Z,7.15
2022-11-13T00:59:59.847Z,7.55
2022-11-13T01:00:22.743Z,7.07
2022-11-13T01:00:46.390Z,7.40
2022-11-13T01:01:10.817Z,7.35
2022-11-13T01:01:33.705Z,7.28
2022-11-13T01:01:56.589Z,7.07
2022-11-13T01:02:19.422Z,7.70
2022-11-13T01:02:42.156Z,7.30
2022-11-13T01:03:04.814Z,7.18
2022-11-13T01:03:29.768Z,7.35
2022-11-13T01:03:52.511Z,7.20
2022-11-13T01:04:15.216Z,7.50
2022-11-13T01:04:37.935Z,6.70
2022-11-13T01:05:03.161Z,6.85
2022-11-13T01:05:25.927Z,6.95
2022-11-13T01:05:48.598Z,7.25
2022-11-13T01:06:13.156Z,7.53
2022-11-13T01:06:36.037Z,7.43
2022-11-13T01:07:01.327Z,7.55
2022-11-13T01:07:24.024Z,7.35
2022-11-13T01:07:50.732Z,7.10
2022-11-13T01:08:14.143Z,6.85
2022-11-13T01:08:36.817Z,6.97
2022-11-13T01:09:00.364Z,7.22
2022-11-13T01:09:23.088Z,7.05
2022-11-13T01:09:51.753Z,6.93
2022-11-13T01:10:14.907Z,7.10
2022-11-13T01:10:40.422Z,7.03
2022-11-13T01:11:08.582Z,7.43
2022-11-13T01:11:31.400Z,7.18
2022-11-13T01:11:54.107Z,6.97
2022-11-13T01:12:19.278Z,7.25
2022-11-13T01:12:42.087Z,6.90
2022-11-13T01:13:05.823Z,6.95
2022-11-13T01:13:31.052Z,7.07
2022-11-13T01:13:53.927Z,7.00
2022-11-13T01:14:19.876Z,6.65
2022-11-13T01:14:42.631Z,7.10
2022-11-13T01:15:06.178Z,7.15
2022-11-13T01:15:31.192Z,7.05
2022-11-13T01:15:54.040Z,6.90
2022-11-13T01:16:20.653Z,6.75
2022-11-13T01:16:43.392Z,7.60
2022-11-13T01:17:06.083Z,7.45
2022-11-13T01:17:32.067Z,6.95
2022-11-13T01:17:56.971Z,7.07
2022-11-13T01:18:24.567Z,6.82
2022-11-13T01:18:47.632Z,7.10
2022-11-13T01:19:10.311Z,6.75
2022-11-13T01:19:33.067Z,7.00
2022-11-13T01:19:55.791Z,7.30
2022-11-13T01:20:18.666Z,7.55
2022-11-13T01:20:41.418Z,7.82
2022-11-13T01:21:07.907Z,7.60
2022-11-13T01:21:30.877Z,7.28
2022-11-13T01:21:56.070Z,6.95
2022-11-13T01:22:18.832Z,6.97
2022-11-13T01:22:41.673Z,7.13
2022-11-13T01:23:06.075Z,7.50
2022-11-13T01:23:28.777Z,7.05
2022-11-13T01:23:53.847Z,7.32
2022-11-13T01:24:16.542Z,7.25
2022-11-13T01:24:39.328Z,7.18
2022-11-13T01:25:05.823Z,7.20
2022-11-13T01:25:28.692Z,7.47
2022-11-13T01:25:53.793Z,6.82
2022-11-13T01:26:18.625Z,6.75
2022-11-13T01:26:41.434Z,7.03
2022-11-13T01:27:04.517Z,7.10
2022-11-13T01:27:27.277Z,7.30
2022-11-13T01:27:49.974Z,7.57
2022-11-13T01:28:12.706Z,7.38
2022-11-13T01:28:35.442Z,7.10
2022-11-13T01:28:58.567Z,7.20
2022-11-13T01:29:21.317Z,7.32
2022-11-13T01:29:44.092Z,7.35
2022-11-13T01:30:08.957Z,7.22
2022-11-13T01:30:31.689Z,7.15
2022-11-13T01:30:54.418Z,6.78
2022-11-13T01:31:18.457Z,6.93
2022-11-13T01:31:41.245Z,7.03
2022-11-13T01:32:06.267Z,7.13
2022-11-13T01:32:29.062Z,6.88
2022-11-13T01:32:51.827Z,6.93
2022-11-13T01:33:14.569Z,6.65
2022-11-13T01:33:37.386Z,7.18
2022-11-13T01:34:00.169Z,7.18
2022-11-13T01:34:22.981Z,6.55
2022-11-13T01:34:45.752Z,6.90
2022-11-13T01:35:11.807Z,6.82
2022-11-13T01:35:34.515Z,6.88
2022-11-13T01:36:01.317Z,7.20
2022-11-13T01:36:26.001Z,7.47
2022-11-13T01:36:48.817Z,6.80
2022-11-13T01:37:11.567Z,6.55
2022-11-13T01:37:34.259Z,7.18
2022-11-13T01:37:57.031Z,7.50
2022-11-13T01:38:21.177Z,7.40
2022-11-13T01:38:44.031Z,7.10
2022-11-13T01:39:06.729Z,7.20
2022-11-13T01:39:29.462Z,7.07
2022-11-13T01:39:52.407Z,7.80
2022-11-13T01:40:15.522Z,7.13
2022-11-13T01:40:44.976Z,7.15
2022-11-13T01:41:07.757Z,6.85
2022-11-13T01:41:31.698Z,6.90
2022-11-13T01:41:54.873Z,6.80
2022-11-13T01:42:17.587Z,6.97
2022-11-13T01:42:40.454Z,7.03
2022-11-13T01:43:20.962Z,6.90
2022-11-13T01:43:43.837Z,7.05
2022-11-13T01:44:07.317Z,7.40
2022-11-13T01:44:48.960Z,7.38
2022-11-13T01:45:48.557Z,7.07
2022-11-13T01:46:18.073Z,7.03
2022-11-13T01:46:41.267Z,7.18
2022-11-13T01:47:04.187Z,7.10
2022-11-13T01:47:26.958Z,7.20
2022-11-13T01:47:49.698Z,7.32
2022-11-13T01:48:12.450Z,7.47
2022-11-13T01:48:36.902Z,7.22
2022-11-13T01:49:04.126Z,7.20
2022-11-13T01:49:29.018Z,7.53
2022-11-13T01:49:52.157Z,7.25
2022-11-13T01:50:14.877Z,7.35
2022-11-13T01:50:37.764Z,7.32
2022-11-13T01:51:00.441Z,7.68
2022-11-13T01:51:27.677Z,7.35
2022-11-13T01:51:52.931Z,7.50
2022-11-13T01:52:17.794Z,7.30
2022-11-13T01:52:40.822Z,7.85
2022-11-13T01:53:03.607Z,7.68
2022-11-13T01:53:27.787Z,8.23
2022-11-13T01:53:50.658Z,7.93
2022-11-13T01:54:15.532Z,7.68
2022-11-13T01:54:41.283Z,8.25
2022-11-13T01:55:05.607Z,7.72
2022-11-13T01:55:28.477Z,7.90
2022-11-13T01:55:51.278Z,7.72
2022-11-13T01:56:14.242Z,7.60
2022-11-13T01:56:37.052Z,7.63
2022-11-13T01:56:59.732Z,7.53
2022-11-13T01:57:22.467Z,7.70
2022-11-13T01:57:45.162Z,7.85
2022-11-13T01:58:08.570Z,7.35
2022-11-13T01:58:31.282Z,7.70
2022-11-13T01:58:59.004Z,7.43
2022-11-13T01:59:23.512Z,7.65
2022-11-13T01:59:47.996Z,7.63
2022-11-13T02:00:12.492Z,8.02
2022-11-13T02:00:35.312Z,7.72
2022-11-13T02:01:00.460Z,7.88
2022-11-13T02:01:23.214Z,7.47
2022-11-13T02:01:46.104Z,8.00
2022-11-13T02:02:08.929Z,8.40
2022-11-13T02:02:31.834Z,7.70
2022-11-13T02:02:54.701Z,7.90
2022-11-13T02:03:17.425Z,8.02
2022-11-13T02:03:40.311Z,8.32
2022-11-13T02:04:06.346Z,7.53
2022-11-13T02:04:29.056Z,7.50
2022-11-13T02:04:51.842Z,7.97
2022-11-13T02:05:14.590Z,8.10
2022-11-13T02:05:37.371Z,7.78
2022-11-13T02:06:00.120Z,7.97
2022-11-13T02:06:22.882Z,7.43
2022-11-13T02:06:47.756Z,7.85
2022-11-13T02:07:11.760Z,8.02
2022-11-13T02:07:34.466Z,7.75
2022-11-13T02:07:57.186Z,7.38
2022-11-13T02:08:19.926Z,8.00
2022-11-13T02:08:44.738Z,7.90
2022-11-13T02:09:07.586Z,7.88
2022-11-13T02:09:32.187Z,7.93
2022-11-13T02:09:56.156Z,7.40
2022-11-13T02:10:18.905Z,7.00
2022-11-13T02:10:41.607Z,7.63
2022-11-13T02:11:04.333Z,7.57
2022-11-13T02:11:27.064Z,7.30
2022-11-13T02:11:49.729Z,7.57
2022-11-13T02:12:13.850Z,7.47
2022-11-13T02:12:37.906Z,7.88
2022-11-13T02:13:00.888Z,7.63
2022-11-13T02:13:26.339Z,7.30
2022-11-13T02:13:49.022Z,7.05
2022-11-13T02:14:14.303Z,7.57
2022-11-13T02:14:38.429Z,7.30
2022-11-13T02:15:01.205Z,7.30
2022-11-13T02:15:24.806Z,7.63
2022-11-13T02:15:48.685Z,7.60
2022-11-13T02:16:11.490Z,7.90
2022-11-13T02:16:34.885Z,8.00
2022-11-13T02:16:58.892Z,7.30
2022-11-13T02:17:26.134Z,7.43
2022-11-13T02:17:50.855Z,7.75
2022-11-13T02:18:13.637Z,7.72
2022-11-13T02:18:36.710Z,7.80
2022-11-13T02:18:59.512Z,7.80
2022-11-13T02:19:25.772Z,8.15
2022-11-13T02:19:51.057Z,7.70
2022-11-13T02:20:14.227Z,8.25
2022-11-13T02:20:44.197Z,7.75
2022-11-13T02:21:15.653Z,7.65
2022-11-13T02:21:41.432Z,7.25
2022-11-13T02:22:07.056Z,7.32
2022-11-13T02:22:32.488Z,7.38
2022-11-13T02:22:57.481Z,7.45
2022-11-13T02:23:24.319Z,7.78
2022-11-13T02:23:51.114Z,7.75
2022-11-13T02:24:21.301Z,7.63
2022-11-13T02:24:46.156Z,7.13
2022-11-13T02:25:11.374Z,7.57
2022-11-13T02:25:36.415Z,7.47
2022-11-13T02:25:59.662Z,7.43
2022-11-13T02:26:24.794Z,7.72
2022-11-13T02:26:47.603Z,7.75
2022-11-13T02:27:15.334Z,7.57
2022-11-13T02:27:42.159Z,8.10
2022-11-13T02:28:04.968Z,7.80
2022-11-13T02:28:27.919Z,7.65
2022-11-13T02:28:50.919Z,7.80
2022-11-13T02:29:13.669Z,8.02
2022-11-13T02:29:36.819Z,7.85
2022-11-13T02:29:59.553Z,7.63
2022-11-13T02:30:26.764Z,7.72
2022-11-13T02:30:50.174Z,7.50
2022-11-13T02:31:13.544Z,7.38
2022-11-13T02:31:36.987Z,7.88
2022-11-13T02:31:59.796Z,7.68
2022-11-13T02:32:22.573Z,8.05
2022-11-13T02:32:45.432Z,7.40
2022-11-13T02:33:20.649Z,7.28
2022-11-13T02:33:43.363Z,7.35
2022-11-13T02:34:06.107Z,7.90
2022-11-13T02:34:28.772Z,8.02
2022-11-13T02:34:51.674Z,7.13
2022-11-13T02:35:14.676Z,7.13
2022-11-13T02:35:38.087Z,7.53
2022-11-13T02:36:00.812Z,7.57
2022-11-13T02:36:24.327Z,7.30
2022-11-13T02:36:47.106Z,7.78
2022-11-13T02:37:09.712Z,7.82
2022-11-13T02:37:32.363Z,7.90
2022-11-13T02:37:57.344Z,7.57
2022-11-13T02:38:20.173Z,7.75
2022-11-13T02:38:42.864Z,7.40
2022-11-13T02:39:08.804Z,7.15
2022-11-13T02:39:32.989Z,7.57
2022-11-13T02:39:55.678Z,8.00
2022-11-13T02:40:19.443Z,7.90
2022-11-13T02:40:42.147Z,7.30
2022-11-13T02:41:05.124Z,7.60
2022-11-13T02:41:27.844Z,7.47
2022-11-13T02:41:50.603Z,7.65
2022-11-13T02:42:13.289Z,7.07
2022-11-13T02:42:36.029Z,7.38
2022-11-13T02:43:01.908Z,7.53
2022-11-13T02:43:24.675Z,7.65
2022-11-13T02:43:47.388Z,7.22
2022-11-13T02:44:10.144Z,7.53
2022-11-13T02:44:32.829Z,7.32
2022-11-13T02:44:55.563Z,7.72
2022-11-13T02:45:18.369Z,8.02
2022-11-13T02:45:41.128Z,7.82
2022-11-13T02:46:06.243Z,7.72
2022-11-13T02:46:28.976Z,7.53
2022-11-13T02:46:54.098Z,7.80
2022-11-13T02:47:16.794Z,7.53
2022-11-13T02:47:41.709Z,7.75
2022-11-13T02:48:04.988Z,7.82
2022-11-13T02:48:27.946Z,8.25
2022-11-13T02:48:51.084Z,7.60
2022-11-13T02:49:16.173Z,7.57
2022-11-13T02:49:38.898Z,7.88
2022-11-13T02:50:06.431Z,7.72
2022-11-13T02:50:29.183Z,8.10
2022-11-13T02:50:51.927Z,8.18
2022-11-13T02:51:14.732Z,7.78
2022-11-13T02:51:37.473Z,8.00
2022-11-13T02:52:00.145Z,7.90
2022-11-13T02:52:25.095Z,7.68
2022-11-13T02:52:47.966Z,8.05
2022-11-13T02:53:10.739Z,7.55
2022-11-13T02:53:36.168Z,7.72
2022-11-13T02:53:58.908Z,7.82
2022-11-13T02:54:24.167Z,8.15
2022-11-13T02:54:48.325Z,7.75
2022-11-13T02:55:11.140Z,8.55
2022-11-13T02:55:33.820Z,8.10
2022-11-13T02:55:56.504Z,7.28
2022-11-13T02:56:19.326Z,7.95
2022-11-13T02:56:42.147Z,7.80
2022-11-13T02:57:04.901Z,7.38
2022-11-13T02:57:27.785Z,7.43
2022-11-13T02:57:50.557Z,7.68
2022-11-13T02:58:15.555Z,7.70
2022-11-13T02:58:38.490Z,7.70
2022-11-13T02:59:01.226Z,7.80
2022-11-13T02:59:23.995Z,7.65
2022-11-13T02:59:47.756Z,7.60
2022-11-13T03:00:14.264Z,8.18
2022-11-13T03:00:37.283Z,7.55
2022-11-13T03:01:02.565Z,7.60
2022-11-13T03:01:25.498Z,7.57
2022-11-13T03:01:48.720Z,7.80
2022-11-13T03:02:11.551Z,7.55
2022-11-13T03:02:36.712Z,7.97
2022-11-13T03:02:59.400Z,7.22
2022-11-13T03:03:48.217Z,7.20
2022-11-13T03:04:04.915Z,7.57
2022-11-13T03:04:44.003Z,7.22
2022-11-13T03:05:12.402Z,7.10
2022-11-13T03:05:35.882Z,7.43
2022-11-13T03:05:58.591Z,7.57
2022-11-13T03:06:21.366Z,7.43
2022-11-13T03:06:45.234Z,7.57
2022-11-13T03:07:08.036Z,7.55
2022-11-13T03:07:31.250Z,7.40
2022-11-13T03:07:53.916Z,7.78
2022-11-13T03:08:19.844Z,7.03
2022-11-13T03:08:42.697Z,7.25
2022-11-13T03:09:06.201Z,7.80
2022-11-13T03:09:29.138Z,7.88
2022-11-13T03:09:55.745Z,6.85
2022-11-13T03:10:19.052Z,7.70
2022-11-13T03:10:41.791Z,7.35
2022-11-13T03:11:08.981Z,7.47
2022-11-13T03:11:31.699Z,7.53
2022-11-13T03:11:54.741Z,7.45
2022-11-13T03:12:18.100Z,7.55
2022-11-13T03:12:40.874Z,7.50
2022-11-13T03:13:06.156Z,7.38
2022-11-13T03:13:28.891Z,7.00
2022-11-13T03:13:51.660Z,7.70
2022-11-13T03:14:14.518Z,7.82
2022-11-13T03:14:37.695Z,7.57
2022-11-13T03:15:00.386Z,7.90
2022-11-13T03:15:25.695Z,7.70
2022-11-13T03:15:48.440Z,7.57
2022-11-13T03:16:12.545Z,7.53
2022-11-13T03:16:35.700Z,7.40
2022-11-13T03:16:58.564Z,7.35
2022-11-13T03:17:23.703Z,7.75
2022-11-13T03:17:46.440Z,7.65
2022-11-13T03:18:11.334Z,7.25
2022-11-13T03:18:34.120Z,7.38
2022-11-13T03:18:56.962Z,7.55
2022-11-13T03:19:19.694Z,7.88
2022-11-13T03:19:42.410Z,7.55
2022-11-13T03:20:05.803Z,7.60
2022-11-13T03:20:28.605Z,7.35
2022-11-13T03:20:54.203Z,7.63
2022-11-13T03:21:17.047Z,7.47
2022-11-13T03:21:39.825Z,7.35
2022-11-13T03:22:04.960Z,7.18
2022-11-13T03:22:27.680Z,7.47
2022-11-13T03:22:52.643Z,7.03
2022-11-13T03:23:15.424Z,7.00
2022-11-13T03:23:41.571Z,7.43
2022-11-13T03:24:07.000Z,7.20
2022-11-13T03:24:29.671Z,7.05
2022-11-13T03:24:53.862Z,7.53
2022-11-13T03:25:16.770Z,7.20
2022-11-13T03:25:39.589Z,6.93
2022-11-13T03:26:06.309Z,7.32
2022-11-13T03:26:29.646Z,7.38
2022-11-13T03:26:52.337Z,7.22
2022-11-13T03:27:15.129Z,7.13
2022-11-13T03:27:40.418Z,7.40
2022-11-13T03:28:03.187Z,7.38
2022-11-13T03:28:26.255Z,7.65
2022-11-13T03:28:49.182Z,7.15
2022-11-13T03:29:12.012Z,7.43
2022-11-13T03:29:37.095Z,7.18
2022-11-13T03:30:00.037Z,7.20
2022-11-13T03:30:25.172Z,7.53
2022-11-13T03:30:48.018Z,7.25
2022-11-13T03:31:13.839Z,7.65
2022-11-13T03:31:36.519Z,7.53
2022-11-13T03:31:59.222Z,7.40
2022-11-13T03:32:22.012Z,7.32
2022-11-13T03:32:47.856Z,7.55
2022-11-13T03:33:10.592Z,7.03
2022-11-13T03:33:35.782Z,7.07
2022-11-13T03:34:01.525Z,7.38
2022-11-13T03:34:24.307Z,7.35
2022-11-13T03:34:47.138Z,7.20
2022-11-13T03:35:09.930Z,7.63
2022-11-13T03:35:38.079Z,7.20
2022-11-13T03:36:05.300Z,7.10
2022-11-13T03:36:29.048Z,7.30
2022-11-13T03:36:54.197Z,7.00
2022-11-13T03:37:16.967Z,6.97
2022-11-13T03:37:39.672Z,7.07
2022-11-13T03:38:05.212Z,7.22
2022-11-13T03:38:28.225Z,6.75
2022-11-13T03:38:51.187Z,6.97
2022-11-13T03:39:14.178Z,6.82
2022-11-13T03:39:39.211Z,7.18
2022-11-13T03:40:08.971Z,7.32
2022-11-13T03:40:31.698Z,6.93
2022-11-13T03:40:56.976Z,7.32
2022-11-13T03:41:19.778Z,7.20
2022-11-13T03:41:45.534Z,7.28
2022-11-13T03:42:08.434Z,7.10
2022-11-13T03:42:31.843Z,6.95
2022-11-13T03:42:56.961Z,7.45
2022-11-13T03:43:19.673Z,7.28
2022-11-13T03:43:42.452Z,7.20
2022-11-13T03:44:05.402Z,7.50
2022-11-13T03:44:28.070Z,7.18
2022-11-13T03:44:50.950Z,7.40
2022-11-13T03:45:13.706Z,7.07
2022-11-13T03:45:38.695Z,7.13
2022-11-13T03:46:01.500Z,7.55
2022-11-13T03:46:26.479Z,7.20
2022-11-13T03:46:49.160Z,7.00
2022-11-13T03:47:14.426Z,7.50
2022-11-13T03:47:37.154Z,6.93
2022-11-13T03:47:59.840Z,7.15
2022-11-13T03:48:25.954Z,6.75
2022-11-13T03:48:48.975Z,7.15
2022-11-13T03:49:11.811Z,7.03
2022-11-13T03:49:34.719Z,7.38
2022-11-13T03:49:57.560Z,6.93
2022-11-13T03:50:20.335Z,7.05
2022-11-13T03:50:45.689Z,7.00
2022-11-13T03:51:08.649Z,7.15
2022-11-13T03:51:31.360Z,6.78
2022-11-13T03:51:56.570Z,7.10
2022-11-13T03:52:22.570Z,7.00
2022-11-13T03:52:48.478Z,7.20
2022-11-13T03:53:11.306Z,7.53
2022-11-13T03:53:36.414Z,7.25
2022-11-13T03:54:00.501Z,7.13
2022-11-13T03:54:23.202Z,7.38
2022-11-13T03:54:45.940Z,7.18
2022-11-13T03:55:10.338Z,7.40
2022-11-13T03:55:33.065Z,7.15
2022-11-13T03:55:55.855Z,7.43
2022-11-13T03:56:21.030Z,7.35
2022-11-13T03:56:43.686Z,7.30
2022-11-13T03:57:07.063Z,7.68
2022-11-13T03:57:32.269Z,6.90
2022-11-13T03:57:55.895Z,7.00
2022-11-13T03:58:20.795Z,7.32
2022-11-13T03:58:49.459Z,7.47
2022-11-13T03:59:12.490Z,7.35
2022-11-13T03:59:35.330Z,7.38
2022-11-13T03:59:57.977Z,7.35
2022-11-13T04:00:20.852Z,7.28
2022-11-13T04:00:46.115Z,7.47
2022-11-13T04:01:08.912Z,7.10
2022-11-13T04:01:31.717Z,7.47
2022-11-13T04:01:56.704Z,7.07
2022-11-13T04:02:19.500Z,6.90
2022-11-13T04:02:44.381Z,6.82
2022-11-13T04:03:09.281Z,7.13
2022-11-13T04:03:31.973Z,7.40
2022-11-13T04:03:54.726Z,7.18
2022-11-13T04:04:17.580Z,6.78
2022-11-13T04:04:40.355Z,6.78
2022-11-13T04:05:06.040Z,6.95
2022-11-13T04:05:30.955Z,7.20
2022-11-13T04:05:53.772Z,7.07
2022-11-13T04:06:18.631Z,7.25
2022-11-13T04:06:41.438Z,7.18
2022-11-13T04:07:04.304Z,7.25
2022-11-13T04:07:26.996Z,7.18
2022-11-13T04:07:52.709Z,7.10
2022-11-13T04:08:15.520Z,6.90
2022-11-13T04:08:38.240Z,7.07
2022-11-13T04:09:00.961Z,7.28
2022-11-13T04:09:23.980Z,7.50
2022-11-13T04:09:46.727Z,7.95
2022-11-13T04:10:10.820Z,7.30
2022-11-13T04:10:33.685Z,7.65
2022-11-13T04:11:05.295Z,7.28
2022-11-13T04:11:28.171Z,7.32
2022-11-13T04:11:50.879Z,7.82
2022-11-13T04:12:13.611Z,7.50
2022-11-13T04:12:36.491Z,7.57
2022-11-13T04:12:59.222Z,7.80
2022-11-13T04:13:21.896Z,7.38
2022-11-13T04:13:47.681Z,7.00
2022-11-13T04:14:10.416Z,7.07
2022-11-13T04:14:33.158Z,6.82
2022-11-13T04:14:58.089Z,7.20
2022-11-13T04:15:23.845Z,7.25
2022-11-13T04:15:46.965Z,7.32
2022-11-13T04:16:09.645Z,7.65
2022-11-13T04:16:32.496Z,7.90
2022-11-13T04:16:55.437Z,8.07
2022-11-13T04:17:18.200Z,8.02
2022-11-13T04:17:40.920Z,7.68
2022-11-13T04:18:03.717Z,8.23
2022-11-13T04:18:26.743Z,8.05
2022-11-13T04:18:49.765Z,7.10
2022-11-13T04:19:12.499Z,7.22
2022-11-13T04:19:35.249Z,6.93
2022-11-13T04:20:00.483Z,6.90
2022-11-13T04:20:24.845Z,7.05
2022-11-13T04:20:47.536Z,7.18
2022-11-13T04:21:12.715Z,7.38
2022-11-13T04:21:37.886Z,7.72
2022-11-13T04:22:03.869Z,7.22
2022-11-13T04:22:26.554Z,7.80
2022-11-13T04:22:49.446Z,7.82
2022-11-13T04:23:14.407Z,8.00
2022-11-13T04:23:40.185Z,7.80
2022-11-13T04:24:02.970Z,8.05
2022-11-13T04:24:25.644Z,8.18
2022-11-13T04:24:48.543Z,7.80
2022-11-13T04:25:12.779Z,8.05
2022-11-13T04:25:35.525Z,7.80
2022-11-13T04:26:00.553Z,7.60
2022-11-13T04:26:24.075Z,8.05
2022-11-13T04:26:46.821Z,7.72
2022-11-13T04:27:09.550Z,7.65
2022-11-13T04:27:32.339Z,7.85
2022-11-13T04:27:55.181Z,7.75
2022-11-13T04:28:17.911Z,7.38
2022-11-13T04:28:42.824Z,7.32
2022-11-13T04:29:05.591Z,7.72
2022-11-13T04:29:30.720Z,8.23
2022-11-13T04:29:53.463Z,7.75
2022-11-13T04:30:16.327Z,7.90
2022-11-13T04:30:39.127Z,7.65
2022-11-13T04:31:01.843Z,8.05
2022-11-13T04:31:26.835Z,8.05
2022-11-13T04:31:49.659Z,8.10
2022-11-13T04:32:14.892Z,7.88
2022-11-13T04:32:37.613Z,8.35
2022-11-13T04:33:02.855Z,8.25
2022-11-13T04:33:25.600Z,8.32
2022-11-13T04:33:48.354Z,8.38
2022-11-13T04:34:11.385Z,8.00
2022-11-13T04:34:36.652Z,7.57
2022-11-13T04:34:59.360Z,7.43
2022-11-13T04:35:25.390Z,7.53
2022-11-13T04:35:48.668Z,7.40
2022-11-13T04:36:12.470Z,7.38
2022-11-13T04:36:35.209Z,7.55
2022-11-13T04:37:00.115Z,7.20
2022-11-13T04:37:22.768Z,7.32
2022-11-13T04:37:48.690Z,7.90
2022-11-13T04:38:11.449Z,7.72
2022-11-13T04:38:36.644Z,8.23
2022-11-13T04:38:59.383Z,8.05
2022-11-13T04:39:22.088Z,8.02
2022-11-13T04:39:44.808Z,7.78
2022-11-13T04:40:09.618Z,8.63
2022-11-13T04:40:33.929Z,8.52
2022-11-13T04:41:15.055Z,8.43
2022-11-13T04:41:56.500Z,8.75
2022-11-13T04:42:37.824Z,7.55
2022-11-13T04:43:00.503Z,7.95
2022-11-13T04:43:23.286Z,7.95
2022-11-13T04:43:45.993Z,7.70
2022-11-13T04:44:08.804Z,8.05
2022-11-13T04:44:31.528Z,8.43
2022-11-13T04:44:56.433Z,8.05
2022-11-13T04:45:19.777Z,7.80
2022-11-13T04:45:42.538Z,8.02
2022-11-13T04:46:05.548Z,8.00
2022-11-13T04:46:28.288Z,8.23
2022-11-13T04:46:51.048Z,7.95
2022-11-13T04:47:13.778Z,7.63
2022-11-13T04:47:36.493Z,8.23
2022-11-13T04:47:59.207Z,8.40
2022-11-13T04:48:21.929Z,8.07
2022-11-13T04:48:46.909Z,7.90
2022-11-13T04:49:09.729Z,8.13
2022-11-13T04:49:32.378Z,7.70
2022-11-13T04:49:55.218Z,7.85
2022-11-13T04:50:21.125Z,8.15
2022-11-13T04:50:44.023Z,8.30
2022-11-13T04:51:06.873Z,7.97
2022-11-13T04:51:32.073Z,8.40
2022-11-13T04:51:54.769Z,9.18
2022-11-13T04:52:17.495Z,8.77
2022-11-13T04:52:40.229Z,8.05
2022-11-13T04:53:02.897Z,7.97
2022-11-13T04:53:25.605Z,7.78
2022-11-13T04:53:48.338Z,7.90
2022-11-13T04:54:11.043Z,7.50
2022-11-13T04:54:36.008Z,8.27
2022-11-13T04:54:58.752Z,8.52
2022-11-13T04:55:21.470Z,8.30
2022-11-13T04:55:48.096Z,8.52
2022-11-13T04:56:10.862Z,8.43
2022-11-13T04:56:33.688Z,8.75
2022-11-13T04:56:57.493Z,9.30
2022-11-13T04:57:20.333Z,9.07
2022-11-13T04:57:43.161Z,9.02
2022-11-13T04:58:05.902Z,8.88
2022-11-13T04:58:29.029Z,8.70
2022-11-13T04:58:52.013Z,9.20
2022-11-13T04:59:14.979Z,9.50
2022-11-13T04:59:37.670Z,9.48
2022-11-13T05:00:03.553Z,9.85
2022-11-13T05:00:26.366Z,10.50
2022-11-13T05:00:49.089Z,10.95
2022-11-13T05:01:11.863Z,12.77
2022-11-13T05:01:35.552Z,13.75
2022-11-13T05:01:58.470Z,16.05
2022-11-13T05:02:21.127Z,18.80
2022-11-13T05:02:43.928Z,17.75
2022-11-13T05:03:06.752Z,17.40
2022-11-13T05:03:29.487Z,17.23
2022-11-13T05:03:52.219Z,15.50
2022-11-13T05:04:17.772Z,12.35
2022-11-13T05:04:40.547Z,11.77
2022-11-13T05:05:05.156Z,11.43
2022-11-13T05:05:28.361Z,9.52
2022-11-13T05:05:51.096Z,9.18
2022-11-13T05:06:13.879Z,10.80
2022-11-13T05:06:36.675Z,11.80
2022-11-13T05:06:59.455Z,13.40
2022-11-13T05:07:22.186Z,13.70
2022-11-13T05:07:44.976Z,12.98
2022-11-13T05:08:11.753Z,13.30
2022-11-13T05:08:34.652Z,13.88
2022-11-13T05:09:00.457Z,14.35
2022-11-13T05:09:23.278Z,14.43
2022-11-13T05:09:46.064Z,14.77
2022-11-13T05:10:09.566Z,14.45
2022-11-13T05:10:32.227Z,16.00
2022-11-13T05:10:56.516Z,16.50
2022-11-13T05:11:19.317Z,16.63
2022-11-13T05:11:42.087Z,17.17
2022-11-13T05:12:08.452Z,18.75
2022-11-13T05:12:31.208Z,19.13
2022-11-13T05:12:56.807Z,18.23
2022-11-13T05:13:19.576Z,17.88
2022-11-13T05:13:42.316Z,16.55
2022-11-13T05:14:07.531Z,17.08
2022-11-13T05:14:30.248Z,16.38
2022-11-13T05:14:52.949Z,16.55
2022-11-13T05:15:15.691Z,16.33
2022-11-13T05:15:38.562Z,16.15
2022-11-13T05:16:02.097Z,15.98
2022-11-13T05:16:24.827Z,16.05
2022-11-13T05:16:50.083Z,16.23
2022-11-13T05:17:13.007Z,16.88
2022-11-13T05:17:35.842Z,16.75
2022-11-13T05:17:58.838Z,16.38
2022-11-13T05:18:24.936Z,15.98